Terminal Aerodrome Forecast
Issued by NWS

Current Version | Previous Version | Graphics & Text | Print | Product List | Glossary On
Versions: 1 2 3 4 5 6 7 8 9 10 11 12 13 14 15 16 17 18 19 20 21 22 23 24 25 26 27 28 29 30
000
FTUS41 KILN 300200 AAA
TAFLCK
TAF AMD
KLCK 300245Z 3003/3024 VRB04KT P6SM BKN015
      TEMPO 3004/3008 5SM BR
     FM300800 23005KT 4SM BR SCT005 BKN011
     FM301400 23010KT P6SM SCT011 BKN025
     FM301800 25012G20KT P6SM VCSH BKN035=

USA.gov is the U.S. government's official web portal to all federal, state and local government web resources and services.